ADDS METAR Data INFO
IDs: Format: Raw Decoded Include TAF

Data at: 1950 UTC 14 Aug 2018

KSNY 141853Z AUTO 12010KT 10SM CLR 25/14 A3011 RMK AO2 SLP150 T02500144
KSNY 141753Z AUTO VRB06KT 10SM FEW019 FEW024 23/16 A3013 RMK AO2 SLP159 T02330161 10233 20144 50003
KSNY 141729Z AUTO 05007KT 10SM FEW014 SCT024 22/17 A3014 RMK AO2 T02220167
KSNY 141713Z AUTO 07007KT 9SM FEW010 SCT017 BKN026 21/17 A3014 RMK AO2 T02110172
KSNY 141702Z AUTO 04009KT 9SM FEW007 BKN012 OVC027 21/17 A3015 RMK AO2 T02060167
KSNY 141653Z AUTO 04008KT 10SM SCT007 BKN015 OVC028 20/17 A3015 RMK AO2 SLP167 T02000167
KSNY 141651Z AUTO 05008KT 10SM SCT007 BKN015 OVC028 20/17 A3015 RMK AO2
KSNY 141646Z AUTO 04008KT 10SM BKN007 BKN014 OVC028 20/17 A3015 RMK AO2 CIG 006V011 T02000172
KSNY 141612Z AUTO 05009KT 10SM FEW008 OVC015 20/17 A3014 RMK AO2 T02000172
KSNY 141553Z AUTO 04010KT 10SM BKN008 OVC012 19/17 A3014 RMK AO2 CIG 006V009 SLP165 T01940172
KSNY 141526Z AUTO 03009KT 10SM OVC005 18/17 A3013 RMK AO2 CIG 003V009 T01830172
KSNY 141453Z AUTO 03008KT 6SM BR OVC002 17/17 A3012 RMK AO2 SLP157 T01720172 51012
KSNY 141442Z AUTO 04008KT 3SM BR OVC002 17/17 A3011 RMK AO2 T01720172
KSNY 141437Z AUTO 05008KT 1 1/4SM BR OVC002 17/17 A3011 RMK AO2 T01720172
KSNY 141353Z AUTO 04003KT M1/4SM FG VV001 17/17 A3011 RMK AO2 SLP150 T01670167
KSNY 141253Z AUTO 00000KT M1/4SM FG VV001 16/16 A3010 RMK AO2 SLP145 T01560156
KSNY 141153Z AUTO 06004KT M1/4SM FG VV001 14/14 A3008 RMK AO2 SLP135 T01440144 10172 20111 53003
KSNY 141053Z AUTO 00000KT 1/4SM FG VV001 14/14 A3007 RMK AO2 SLP131 T01440144
KSNY 140953Z AUTO 00000KT 1/4SM FG VV001 13/13 A3007 RMK AO2 SLP131 T01280128
KSNY 140853Z AUTO 00000KT 1/4SM FG VV002 13/13 A3007 RMK AO2 SLP131 T01280128 58011
KSNY 140825Z AUTO 24003KT 1/4SM FG VV002 13/13 A3008 RMK AO2 T01330128
KSNY 140817Z AUTO 26003KT 3/4SM BR CLR 13/13 A3008 RMK AO2 T01280128
KSNY 140811Z AUTO 26003KT 1 3/4SM BR CLR 13/13 A3008 RMK AO2 VIS 3/4V5 T01330133
KSNY 140808Z AUTO 26003KT 3SM BR CLR 14/14 A3009 RMK AO2 T01390139
KSNY 140801Z AUTO 00000KT 2 1/2SM BR CLR 14/14 A3009 RMK AO2 T01390139
KSNY 140753Z AUTO 00000KT 1SM BR CLR 15/14 A3009 RMK AO2 SLP136 T01500144
KSNY 140749Z AUTO 00000KT 1 3/4SM BR CLR 14/14 A3009 RMK AO2
KSNY 140653Z AUTO 22004KT 10SM CLR 16/16 A3009 RMK AO2 SLP139 T01560156 403220117
KSNY 140553Z AUTO 16005KT 10SM CLR 17/16 A3010 RMK AO2 SLP141 T01670161 10300 20167 51008
KSNY 140453Z AUTO 15007KT 10SM CLR 18/17 A3010 RMK AO2 SLP141 T01830167
KSNY 140353Z AUTO 14011KT 10SM CLR 19/17 A3010 RMK AO2 SLP140 T01940172
KSNY 140253Z AUTO 14013KT 10SM CLR 22/17 A3008 RMK AO2 SLP133 T02170172 53019
KSNY 140153Z AUTO 13011KT 10SM CLR 24/15 A3005 RMK AO2 SLP125 T02390150
KSNY 140053Z AUTO 11016KT 10SM CLR 27/13 A3002 RMK AO2 SLP116 T02720133
KSNY 132353Z AUTO 12011KT 10SM CLR 30/12 A3001 RMK AO2 SLP114 T03000122 10322 20294 55006
KSNY 132253Z AUTO 12010KT 10SM CLR 31/12 A3001 RMK AO2 SLP112 T03110122
KSNY 132153Z AUTO 12010G19KT 10SM CLR 31/12 A3002 RMK AO2 SLP112 T03110117
KSNY 132053Z AUTO 16009G17KT 10SM FEW080 31/11 A3003 RMK AO2 SLP116 T03110111 58008
KSNY 131953Z AUTO 18012G18KT 10SM CLR 32/11 A3004 RMK AO2 SLP117 T03170111
KSNY 131853Z AUTO 15015G21KT 10SM CLR 30/12 A3006 RMK AO2 SLP124 T03000117
KSNY 131753Z AUTO 15011G18KT 10SM CLR 29/13 A3006 RMK AO2 SLP124 T02940128 10294 20117 58003
KSNY 131653Z AUTO 17013KT 10SM CLR 28/13 A3007 RMK AO2 SLP128 T02830133
KSNY 131553Z AUTO 17014G21KT 10SM CLR 26/14 A3008 RMK AO2 SLP132 T02610139
KSNY 131453Z AUTO 19013KT 10SM CLR 24/13 A3007 RMK AO2 SLP132 T02390133 50001
KSNY 131353Z AUTO 18008KT 10SM CLR 21/14 A3007 RMK AO2 SLP135 T02060139
KSNY 131253Z AUTO 18007KT 10SM CLR 17/14 A3007 RMK AO2 SLP133 T01670139
KSNY 131153Z AUTO 17008KT 9SM CLR 12/11 A3007 RMK AO2 SLP135 T01170111 10172 20117 55001
KSNY 131053Z AUTO 17007KT 9SM CLR 13/12 A3006 RMK AO2 SLP129 T01330122
KSNY 130953Z AUTO 19006KT 9SM CLR 14/13 A3006 RMK AO2 SLP127 T01440128
KSNY 130853Z AUTO 18009KT 10SM CLR 16/13 A3007 RMK AO2 SLP127 T01560128 58013
KSNY 130753Z AUTO 17010KT 10SM CLR 17/12 A3009 RMK AO2 SLP131 T01670122